sensor_id;sensor_type;location;lat;lon;timestamp;P1;durP1;ratioP1;P2;durP2;ratioP2
60430;SDS011;46285;45.122;20.726;2023-05-29T00:08:51;22.65;;;15.85;;
60430;SDS011;46285;45.122;20.726;2023-05-29T00:18:52;21.13;;;14.55;;
60430;SDS011;46285;45.122;20.726;2023-05-29T00:28:53;21.75;;;11.02;;
60430;SDS011;46285;45.122;20.726;2023-05-29T00:38:54;19.73;;;11.32;;
60430;SDS011;46285;45.122;20.726;2023-05-29T00:48:55;15.60;;;10.95;;
60430;SDS011;46285;45.122;20.726;2023-05-29T00:58:56;15.98;;;10.98;;
60430;SDS011;46285;45.122;20.726;2023-05-29T01:08:58;17.95;;;10.73;;
60430;SDS011;46285;45.122;20.726;2023-05-29T01:19:26;20.88;;;10.70;;
60430;SDS011;46285;45.122;20.726;2023-05-29T01:29:30;22.10;;;12.07;;
60430;SDS011;46285;45.122;20.726;2023-05-29T01:39:34;17.52;;;11.48;;
60430;SDS011;46285;45.122;20.726;2023-05-29T01:49:36;19.02;;;11.68;;
60430;SDS011;46285;45.122;20.726;2023-05-29T01:59:37;22.08;;;11.85;;
60430;SDS011;46285;45.122;20.726;2023-05-29T02:09:39;18.83;;;11.60;;
60430;SDS011;46285;45.122;20.726;2023-05-29T02:19:40;20.15;;;11.63;;
60430;SDS011;46285;45.122;20.726;2023-05-29T02:29:41;18.63;;;10.98;;
60430;SDS011;46285;45.122;20.726;2023-05-29T02:39:42;15.82;;;10.60;;
60430;SDS011;46285;45.122;20.726;2023-05-29T02:49:43;19.70;;;12.38;;
60430;SDS011;46285;45.122;20.726;2023-05-29T02:59:45;23.27;;;11.63;;
60430;SDS011;46285;45.122;20.726;2023-05-29T03:09:46;24.70;;;12.27;;
60430;SDS011;46285;45.122;20.726;2023-05-29T03:19:47;17.77;;;10.75;;
60430;SDS011;46285;45.122;20.726;2023-05-29T03:29:48;15.57;;;11.27;;
60430;SDS011;46285;45.122;20.726;2023-05-29T03:39:50;20.23;;;12.10;;
60430;SDS011;46285;45.122;20.726;2023-05-29T03:49:52;16.50;;;11.00;;
60430;SDS011;46285;45.122;20.726;2023-05-29T03:59:53;15.95;;;10.25;;
60430;SDS011;46285;45.122;20.726;2023-05-29T04:09:56;15.23;;;10.00;;
60430;SDS011;46285;45.122;20.726;2023-05-29T04:19:58;13.25;;;8.63;;
60430;SDS011;46285;45.122;20.726;2023-05-29T04:29:59;14.43;;;8.73;;
60430;SDS011;46285;45.122;20.726;2023-05-29T04:40:06;12.70;;;6.30;;
60430;SDS011;46285;45.122;20.726;2023-05-29T04:50:11;15.02;;;7.32;;
60430;SDS011;46285;45.122;20.726;2023-05-29T05:00:14;12.20;;;6.50;;
60430;SDS011;46285;45.122;20.726;2023-05-29T05:10:17;15.90;;;8.32;;
60430;SDS011;46285;45.122;20.726;2023-05-29T05:20:19;13.75;;;6.68;;
60430;SDS011;46285;45.122;20.726;2023-05-29T05:30:28;11.30;;;6.32;;
60430;SDS011;46285;45.122;20.726;2023-05-29T05:40:30;9.75;;;6.22;;
60430;SDS011;46285;45.122;20.726;2023-05-29T05:50:37;15.63;;;6.05;;
60430;SDS011;46285;45.122;20.726;2023-05-29T06:00:39;14.43;;;7.82;;
60430;SDS011;46285;45.122;20.726;2023-05-29T06:10:41;9.15;;;6.32;;
60430;SDS011;46285;45.122;20.726;2023-05-29T06:20:42;8.20;;;6.10;;
60430;SDS011;46285;45.122;20.726;2023-05-29T06:30:44;9.05;;;5.25;;
60430;SDS011;46285;45.122;20.726;2023-05-29T06:40:46;10.48;;;5.30;;
60430;SDS011;46285;45.122;20.726;2023-05-29T06:50:47;9.25;;;5.43;;
60430;SDS011;46285;45.122;20.726;2023-05-29T07:01:27;12.45;;;7.28;;
60430;SDS011;46285;45.122;20.726;2023-05-29T07:11:33;7.97;;;4.28;;
60430;SDS011;46285;45.122;20.726;2023-05-29T07:21:35;9.27;;;4.70;;
60430;SDS011;46285;45.122;20.726;2023-05-29T07:31:36;7.65;;;4.30;;
60430;SDS011;46285;45.122;20.726;2023-05-29T07:41:38;10.15;;;4.40;;
60430;SDS011;46285;45.122;20.726;2023-05-29T07:51:39;13.27;;;4.82;;
60430;SDS011;46285;45.122;20.726;2023-05-29T08:01:41;8.48;;;4.07;;
60430;SDS011;46285;45.122;20.726;2023-05-29T08:11:50;7.50;;;3.97;;
60430;SDS011;46285;45.122;20.726;2023-05-29T08:21:51;17.98;;;4.03;;
60430;SDS011;46285;45.122;20.726;2023-05-29T08:31:52;6.65;;;3.40;;
60430;SDS011;46285;45.122;20.726;2023-05-29T08:42:10;7.18;;;4.05;;
60430;SDS011;46285;45.122;20.726;2023-05-29T08:52:23;7.60;;;3.88;;
60430;SDS011;46285;45.122;20.726;2023-05-29T09:02:28;8.90;;;4.15;;
60430;SDS011;46285;45.122;20.726;2023-05-29T09:12:29;7.88;;;4.50;;
60430;SDS011;46285;45.122;20.726;2023-05-29T09:22:30;8.20;;;4.32;;
60430;SDS011;46285;45.122;20.726;2023-05-29T09:32:32;10.55;;;4.28;;
60430;SDS011;46285;45.122;20.726;2023-05-29T09:42:33;8.55;;;4.72;;
60430;SDS011;46285;45.122;20.726;2023-05-29T09:52:34;9.10;;;4.70;;
60430;SDS011;46285;45.122;20.726;2023-05-29T10:02:35;9.63;;;4.82;;
60430;SDS011;46285;45.122;20.726;2023-05-29T10:12:37;12.30;;;5.78;;
60430;SDS011;46285;45.122;20.726;2023-05-29T10:22:39;7.43;;;4.90;;
60430;SDS011;46285;45.122;20.726;2023-05-29T10:43:06;9.13;;;5.18;;
60430;SDS011;46285;45.122;20.726;2023-05-29T10:53:07;9.32;;;5.30;;
60430;SDS011;46285;45.122;20.726;2023-05-29T11:03:09;9.93;;;4.55;;
60430;SDS011;46285;45.122;20.726;2023-05-29T11:13:11;8.63;;;5.00;;
60430;SDS011;46285;45.122;20.726;2023-05-29T11:23:23;9.13;;;4.50;;
60430;SDS011;46285;45.122;20.726;2023-05-29T11:33:28;9.55;;;4.97;;
60430;SDS011;46285;45.122;20.726;2023-05-29T11:43:30;10.68;;;5.88;;
60430;SDS011;46285;45.122;20.726;2023-05-29T11:53:31;10.70;;;6.57;;
60430;SDS011;46285;45.122;20.726;2023-05-29T12:03:42;13.45;;;5.75;;
60430;SDS011;46285;45.122;20.726;2023-05-29T12:13:44;10.40;;;4.15;;
60430;SDS011;46285;45.122;20.726;2023-05-29T12:23:45;12.30;;;6.57;;
60430;SDS011;46285;45.122;20.726;2023-05-29T12:33:46;13.52;;;5.78;;
60430;SDS011;46285;45.122;20.726;2023-05-29T12:43:47;9.73;;;5.20;;
60430;SDS011;46285;45.122;20.726;2023-05-29T12:53:56;13.43;;;8.30;;
60430;SDS011;46285;45.122;20.726;2023-05-29T13:03:57;8.88;;;6.00;;
60430;SDS011;46285;45.122;20.726;2023-05-29T13:13:58;9.90;;;5.38;;
60430;SDS011;46285;45.122;20.726;2023-05-29T13:24:01;8.18;;;5.07;;
60430;SDS011;46285;45.122;20.726;2023-05-29T13:34:02;11.60;;;6.38;;
60430;SDS011;46285;45.122;20.726;2023-05-29T13:44:03;12.10;;;7.60;;
60430;SDS011;46285;45.122;20.726;2023-05-29T13:54:04;12.55;;;6.38;;
60430;SDS011;46285;45.122;20.726;2023-05-29T14:04:05;7.88;;;4.68;;
60430;SDS011;46285;45.122;20.726;2023-05-29T14:14:06;9.45;;;7.05;;
60430;SDS011;46285;45.122;20.726;2023-05-29T14:24:08;7.78;;;3.90;;
60430;SDS011;46285;45.122;20.726;2023-05-29T14:34:09;8.95;;;3.72;;
60430;SDS011;46285;45.122;20.726;2023-05-29T14:44:11;8.43;;;4.43;;
60430;SDS011;46285;45.122;20.726;2023-05-29T14:54:12;7.72;;;4.35;;
60430;SDS011;46285;45.122;20.726;2023-05-29T15:04:13;5.65;;;3.00;;
60430;SDS011;46285;45.122;20.726;2023-05-29T15:14:14;10.18;;;4.00;;
60430;SDS011;46285;45.122;20.726;2023-05-29T15:24:15;8.75;;;3.67;;
60430;SDS011;46285;45.122;20.726;2023-05-29T15:34:16;8.32;;;3.63;;
60430;SDS011;46285;45.122;20.726;2023-05-29T15:44:17;10.57;;;7.43;;
60430;SDS011;46285;45.122;20.726;2023-05-29T15:54:18;13.07;;;8.20;;
60430;SDS011;46285;45.122;20.726;2023-05-29T16:04:20;7.82;;;3.58;;
60430;SDS011;46285;45.122;20.726;2023-05-29T16:14:21;5.72;;;2.75;;
60430;SDS011;46285;45.122;20.726;2023-05-29T16:24:22;16.15;;;10.35;;
60430;SDS011;46285;45.122;20.726;2023-05-29T16:34:29;6.72;;;3.58;;
60430;SDS011;46285;45.122;20.726;2023-05-29T16:44:30;6.60;;;3.22;;
60430;SDS011;46285;45.122;20.726;2023-05-29T16:54:31;9.80;;;3.38;;
60430;SDS011;46285;45.122;20.726;2023-05-29T17:04:33;11.27;;;4.80;;
60430;SDS011;46285;45.122;20.726;2023-05-29T17:14:35;32.78;;;20.10;;
60430;SDS011;46285;45.122;20.726;2023-05-29T17:24:36;19.10;;;9.90;;
60430;SDS011;46285;45.122;20.726;2023-05-29T17:34:37;13.35;;;7.57;;
60430;SDS011;46285;45.122;20.726;2023-05-29T17:44:38;10.70;;;7.25;;
60430;SDS011;46285;45.122;20.726;2023-05-29T17:54:39;15.77;;;9.45;;
60430;SDS011;46285;45.122;20.726;2023-05-29T18:04:41;13.48;;;6.85;;
60430;SDS011;46285;45.122;20.726;2023-05-29T18:14:42;17.55;;;5.07;;
60430;SDS011;46285;45.122;20.726;2023-05-29T18:24:44;21.75;;;14.25;;
60430;SDS011;46285;45.122;20.726;2023-05-29T18:34:45;25.25;;;16.83;;
60430;SDS011;46285;45.122;20.726;2023-05-29T18:44:46;26.77;;;17.40;;
60430;SDS011;46285;45.122;20.726;2023-05-29T18:54:47;9.23;;;5.95;;
60430;SDS011;46285;45.122;20.726;2023-05-29T19:04:48;9.25;;;4.95;;
60430;SDS011;46285;45.122;20.726;2023-05-29T19:14:50;11.52;;;6.93;;
60430;SDS011;46285;45.122;20.726;2023-05-29T19:24:51;11.63;;;6.00;;
60430;SDS011;46285;45.122;20.726;2023-05-29T19:34:52;16.10;;;7.40;;
60430;SDS011;46285;45.122;20.726;2023-05-29T19:44:54;13.05;;;8.02;;
60430;SDS011;46285;45.122;20.726;2023-05-29T19:54:55;13.60;;;7.05;;
60430;SDS011;46285;45.122;20.726;2023-05-29T20:04:59;38.13;;;23.58;;
60430;SDS011;46285;45.122;20.726;2023-05-29T20:15:00;21.63;;;12.75;;
60430;SDS011;46285;45.122;20.726;2023-05-29T20:25:01;18.08;;;9.40;;
60430;SDS011;46285;45.122;20.726;2023-05-29T20:35:02;28.23;;;16.17;;
60430;SDS011;46285;45.122;20.726;2023-05-29T20:45:04;18.13;;;10.88;;
60430;SDS011;46285;45.122;20.726;2023-05-29T20:55:05;25.70;;;11.40;;
60430;SDS011;46285;45.122;20.726;2023-05-29T21:05:07;16.15;;;11.13;;
60430;SDS011;46285;45.122;20.726;2023-05-29T21:15:08;26.23;;;16.80;;
60430;SDS011;46285;45.122;20.726;2023-05-29T21:25:09;20.23;;;13.38;;
60430;SDS011;46285;45.122;20.726;2023-05-29T21:35:12;16.83;;;9.88;;
60430;SDS011;46285;45.122;20.726;2023-05-29T21:45:13;14.32;;;9.77;;
60430;SDS011;46285;45.122;20.726;2023-05-29T21:55:14;15.48;;;9.38;;
60430;SDS011;46285;45.122;20.726;2023-05-29T22:05:15;15.77;;;9.52;;
60430;SDS011;46285;45.122;20.726;2023-05-29T22:15:17;16.02;;;9.93;;
60430;SDS011;46285;45.122;20.726;2023-05-29T22:25:18;17.65;;;8.95;;
60430;SDS011;46285;45.122;20.726;2023-05-29T22:35:20;14.65;;;9.60;;
60430;SDS011;46285;45.122;20.726;2023-05-29T22:45:21;19.35;;;11.88;;
60430;SDS011;46285;45.122;20.726;2023-05-29T22:55:22;13.43;;;10.23;;
60430;SDS011;46285;45.122;20.726;2023-05-29T23:05:23;22.52;;;10.68;;
60430;SDS011;46285;45.122;20.726;2023-05-29T23:15:25;16.30;;;11.52;;
60430;SDS011;46285;45.122;20.726;2023-05-29T23:25:26;18.90;;;11.10;;
60430;SDS011;46285;45.122;20.726;2023-05-29T23:35:27;22.15;;;13.98;;
60430;SDS011;46285;45.122;20.726;2023-05-29T23:45:28;17.30;;;9.77;;
60430;SDS011;46285;45.122;20.726;2023-05-29T23:55:29;21.73;;;12.43;;
